KPPA/PPA METAR and TAF weather

Enter ICAO airport designator
Station Type Date Time Source
KPPA METAR 2020/01/26 00:55 UTC NOAA

KPPA 260055Z AUTO 34008KT 10SM CLR 08/01 A2998 RMK AO2 T00780006


Station Type Date Time Source
KPPA Decoded METAR 2020/01/26 00:55 UTC NOAA

Pampa, Perry Lefors Field Airport, TX, United States (KPPA) 35-36-46N 100-59-46W
Jan 25, 2020 - 07:55 PM EST / 2020.01.26 0055 UTC
Wind: from the NNW (340 degrees) at 9 MPH (8 KT):0
Visibility: 10 mile(s):0
Sky conditions: clear
Temperature: 46.0 F (7.8 C)
Dew Point: 33.1 F (0.6 C)
Relative Humidity: 60%
Pressure (altimeter): 29.98 in. Hg (1015 hPa)
ob: KPPA 260055Z AUTO 34008KT 10SM CLR 08/01 A2998 RMK AO2 T00780006
cycle: 1

Station Type Date Time Source
KPPA TAF UTC NOAA

Error!

Example: see airport list